sensor_id;sensor_type;location;lat;lon;timestamp;temperature;humidity
65291;SHT30;51893;59.754;10.110;2023-09-19T00:01:48;16.88;89.84
65291;SHT30;51893;59.754;10.110;2023-09-19T00:04:16;16.85;89.77
65291;SHT30;51893;59.754;10.110;2023-09-19T00:06:47;16.85;89.69
65291;SHT30;51893;59.754;10.110;2023-09-19T00:09:15;16.82;89.54
65291;SHT30;51893;59.754;10.110;2023-09-19T00:11:43;16.79;89.41
65291;SHT30;51893;59.754;10.110;2023-09-19T00:14:12;16.74;89.38
65291;SHT30;51893;59.754;10.110;2023-09-19T00:16:42;16.67;89.32
65291;SHT30;51893;59.754;10.110;2023-09-19T00:19:10;16.64;89.38
65291;SHT30;51893;59.754;10.110;2023-09-19T00:21:39;16.66;89.36
65291;SHT30;51893;59.754;10.110;2023-09-19T00:24:08;16.66;89.28
65291;SHT30;51893;59.754;10.110;2023-09-19T00:26:36;16.62;89.13
65291;SHT30;51893;59.754;10.110;2023-09-19T00:29:06;16.53;89.17
65291;SHT30;51893;59.754;10.110;2023-09-19T00:31:36;16.46;89.38
65291;SHT30;51893;59.754;10.110;2023-09-19T00:34:05;16.41;89.26
65291;SHT30;51893;59.754;10.110;2023-09-19T00:36:34;16.26;88.90
65291;SHT30;51893;59.754;10.110;2023-09-19T00:39:02;16.12;88.86
65291;SHT30;51893;59.754;10.110;2023-09-19T00:41:33;16.09;89.04
65291;SHT30;51893;59.754;10.110;2023-09-19T00:44:03;16.07;89.27
65291;SHT30;51893;59.754;10.110;2023-09-19T00:46:33;16.07;89.38
65291;SHT30;51893;59.754;10.110;2023-09-19T00:49:01;16.05;89.34
65291;SHT30;51893;59.754;10.110;2023-09-19T00:51:29;16.08;89.48
65291;SHT30;51893;59.754;10.110;2023-09-19T00:53:58;16.09;89.77
65291;SHT30;51893;59.754;10.110;2023-09-19T00:56:27;16.09;89.67
65291;SHT30;51893;59.754;10.110;2023-09-19T00:58:56;16.10;89.68
65291;SHT30;51893;59.754;10.110;2023-09-19T01:01:24;16.15;89.74
65291;SHT30;51893;59.754;10.110;2023-09-19T01:03:53;16.18;89.70
65291;SHT30;51893;59.754;10.110;2023-09-19T01:06:21;16.20;89.66
65291;SHT30;51893;59.754;10.110;2023-09-19T01:08:49;16.27;89.65
65291;SHT30;51893;59.754;10.110;2023-09-19T01:11:20;16.34;89.53
65291;SHT30;51893;59.754;10.110;2023-09-19T01:14:14;16.38;89.38
65291;SHT30;51893;59.754;10.110;2023-09-19T01:30:08;16.43;89.37
65291;SHT30;51893;59.754;10.110;2023-09-19T01:32:45;16.46;89.26
65291;SHT30;51893;59.754;10.110;2023-09-19T01:35:14;16.46;89.20
65291;SHT30;51893;59.754;10.110;2023-09-19T01:37:42;16.45;89.20
65291;SHT30;51893;59.754;10.110;2023-09-19T01:40:12;16.44;89.24
65291;SHT30;51893;59.754;10.110;2023-09-19T01:42:59;16.45;89.29
65291;SHT30;51893;59.754;10.110;2023-09-19T01:51:32;16.42;89.40
65291;SHT30;51893;59.754;10.110;2023-09-19T01:54:09;16.38;89.46
65291;SHT30;51893;59.754;10.110;2023-09-19T01:56:45;16.37;89.50
65291;SHT30;51893;59.754;10.110;2023-09-19T01:59:50;16.38;89.49
65291;SHT30;51893;59.754;10.110;2023-09-19T02:02:25;16.40;89.50
65291;SHT30;51893;59.754;10.110;2023-09-19T02:04:58;16.40;89.51
65291;SHT30;51893;59.754;10.110;2023-09-19T02:07:26;16.41;89.50
65291;SHT30;51893;59.754;10.110;2023-09-19T02:09:55;16.41;89.50
65291;SHT30;51893;59.754;10.110;2023-09-19T02:12:23;16.41;89.51
65291;SHT30;51893;59.754;10.110;2023-09-19T02:14:51;16.46;89.50
65291;SHT30;51893;59.754;10.110;2023-09-19T02:17:19;16.47;89.38
65291;SHT30;51893;59.754;10.110;2023-09-19T02:19:47;16.49;89.28
65291;SHT30;51893;59.754;10.110;2023-09-19T02:22:15;16.52;89.16
65291;SHT30;51893;59.754;10.110;2023-09-19T02:24:44;16.52;89.10
65291;SHT30;51893;59.754;10.110;2023-09-19T02:27:13;16.49;89.15
65291;SHT30;51893;59.754;10.110;2023-09-19T02:29:43;16.50;89.18
65291;SHT30;51893;59.754;10.110;2023-09-19T02:32:11;16.52;89.19
65291;SHT30;51893;59.754;10.110;2023-09-19T02:34:40;16.52;89.11
65291;SHT30;51893;59.754;10.110;2023-09-19T02:37:09;16.52;89.11
65291;SHT30;51893;59.754;10.110;2023-09-19T02:39:38;16.52;89.10
65291;SHT30;51893;59.754;10.110;2023-09-19T02:42:07;16.53;89.08
65291;SHT30;51893;59.754;10.110;2023-09-19T02:44:35;16.57;89.02
65291;SHT30;51893;59.754;10.110;2023-09-19T02:47:03;16.57;89.00
65291;SHT30;51893;59.754;10.110;2023-09-19T02:49:32;16.56;89.00
65291;SHT30;51893;59.754;10.110;2023-09-19T02:52:00;16.55;89.07
65291;SHT30;51893;59.754;10.110;2023-09-19T02:54:28;16.53;89.12
65291;SHT30;51893;59.754;10.110;2023-09-19T02:56:58;16.53;89.22
65291;SHT30;51893;59.754;10.110;2023-09-19T02:59:26;16.52;89.27
65291;SHT30;51893;59.754;10.110;2023-09-19T03:01:57;16.51;89.30
65291;SHT30;51893;59.754;10.110;2023-09-19T03:04:28;16.53;89.30
65291;SHT30;51893;59.754;10.110;2023-09-19T03:06:56;16.54;89.27
65291;SHT30;51893;59.754;10.110;2023-09-19T03:09:28;16.53;89.30
65291;SHT30;51893;59.754;10.110;2023-09-19T03:11:56;16.51;89.37
65291;SHT30;51893;59.754;10.110;2023-09-19T03:14:24;16.50;89.40
65291;SHT30;51893;59.754;10.110;2023-09-19T03:16:52;16.50;89.48
65291;SHT30;51893;59.754;10.110;2023-09-19T03:19:20;16.47;89.57
65291;SHT30;51893;59.754;10.110;2023-09-19T03:21:51;16.44;89.72
65291;SHT30;51893;59.754;10.110;2023-09-19T03:24:21;16.44;89.84
65291;SHT30;51893;59.754;10.110;2023-09-19T03:26:49;16.43;89.90
65291;SHT30;51893;59.754;10.110;2023-09-19T03:29:17;16.40;90.02
65291;SHT30;51893;59.754;10.110;2023-09-19T03:31:46;16.43;90.07
65291;SHT30;51893;59.754;10.110;2023-09-19T03:34:14;16.41;90.10
65291;SHT30;51893;59.754;10.110;2023-09-19T03:36:42;16.38;90.18
65291;SHT30;51893;59.754;10.110;2023-09-19T03:39:11;16.34;90.26
65291;SHT30;51893;59.754;10.110;2023-09-19T03:41:39;16.30;90.33
65291;SHT30;51893;59.754;10.110;2023-09-19T03:44:09;16.32;90.43
65291;SHT30;51893;59.754;10.110;2023-09-19T03:46:37;16.32;90.46
65291;SHT30;51893;59.754;10.110;2023-09-19T03:49:08;16.33;90.59
65291;SHT30;51893;59.754;10.110;2023-09-19T03:51:38;16.32;90.67
65291;SHT30;51893;59.754;10.110;2023-09-19T03:54:07;16.27;90.70
65291;SHT30;51893;59.754;10.110;2023-09-19T03:56:37;16.29;90.80
65291;SHT30;51893;59.754;10.110;2023-09-19T03:59:08;16.32;90.81
65291;SHT30;51893;59.754;10.110;2023-09-19T04:01:37;16.31;90.97
65291;SHT30;51893;59.754;10.110;2023-09-19T04:04:05;16.32;91.08
65291;SHT30;51893;59.754;10.110;2023-09-19T04:06:36;16.36;91.19
65291;SHT30;51893;59.754;10.110;2023-09-19T04:09:04;16.39;91.20
65291;SHT30;51893;59.754;10.110;2023-09-19T04:11:34;16.38;91.22
65291;SHT30;51893;59.754;10.110;2023-09-19T04:14:03;16.37;91.27
65291;SHT30;51893;59.754;10.110;2023-09-19T04:16:32;16.37;91.39
65291;SHT30;51893;59.754;10.110;2023-09-19T04:19:00;16.38;91.40
65291;SHT30;51893;59.754;10.110;2023-09-19T04:21:28;16.40;91.50
65291;SHT30;51893;59.754;10.110;2023-09-19T04:23:57;16.42;91.64
65291;SHT30;51893;59.754;10.110;2023-09-19T04:26:25;16.46;91.73
65291;SHT30;51893;59.754;10.110;2023-09-19T04:28:53;16.49;91.80
65291;SHT30;51893;59.754;10.110;2023-09-19T04:31:24;16.52;91.80
65291;SHT30;51893;59.754;10.110;2023-09-19T04:33:53;16.56;91.80
65291;SHT30;51893;59.754;10.110;2023-09-19T04:36:21;16.59;91.70
65291;SHT30;51893;59.754;10.110;2023-09-19T04:39:03;16.59;91.64
65291;SHT30;51893;59.754;10.110;2023-09-19T04:41:35;16.57;91.71
65291;SHT30;51893;59.754;10.110;2023-09-19T04:44:04;16.52;91.85
65291;SHT30;51893;59.754;10.110;2023-09-19T04:46:33;16.48;92.00
65291;SHT30;51893;59.754;10.110;2023-09-19T04:49:03;16.56;91.52
65291;SHT30;51893;59.754;10.110;2023-09-19T04:51:31;16.65;90.94
65291;SHT30;51893;59.754;10.110;2023-09-19T04:54:02;16.71;90.67
65291;SHT30;51893;59.754;10.110;2023-09-19T04:56:30;16.73;90.32
65291;SHT30;51893;59.754;10.110;2023-09-19T04:59:01;16.76;90.01
65291;SHT30;51893;59.754;10.110;2023-09-19T05:01:30;16.79;89.81
65291;SHT30;51893;59.754;10.110;2023-09-19T05:03:59;16.83;88.99
65291;SHT30;51893;59.754;10.110;2023-09-19T05:06:29;16.86;88.25
65291;SHT30;51893;59.754;10.110;2023-09-19T05:08:58;16.89;85.99
65291;SHT30;51893;59.754;10.110;2023-09-19T05:11:27;16.99;83.94
65291;SHT30;51893;59.754;10.110;2023-09-19T05:13:58;17.01;83.94
65291;SHT30;51893;59.754;10.110;2023-09-19T05:16:30;16.99;82.28
65291;SHT30;51893;59.754;10.110;2023-09-19T05:19:02;16.97;81.65
65291;SHT30;51893;59.754;10.110;2023-09-19T05:21:30;16.92;82.06
65291;SHT30;51893;59.754;10.110;2023-09-19T05:23:58;16.82;82.58
65291;SHT30;51893;59.754;10.110;2023-09-19T05:26:27;16.73;83.66
65291;SHT30;51893;59.754;10.110;2023-09-19T05:28:56;16.69;84.21
65291;SHT30;51893;59.754;10.110;2023-09-19T05:31:24;16.60;84.71
65291;SHT30;51893;59.754;10.110;2023-09-19T05:33:53;16.51;85.11
65291;SHT30;51893;59.754;10.110;2023-09-19T05:36:22;16.41;85.77
65291;SHT30;51893;59.754;10.110;2023-09-19T05:38:52;16.36;86.15
65291;SHT30;51893;59.754;10.110;2023-09-19T05:41:21;16.34;86.35
65291;SHT30;51893;59.754;10.110;2023-09-19T05:43:51;16.36;86.51
65291;SHT30;51893;59.754;10.110;2023-09-19T05:46:19;16.34;86.49
65291;SHT30;51893;59.754;10.110;2023-09-19T05:48:47;16.32;86.59
65291;SHT30;51893;59.754;10.110;2023-09-19T05:51:18;16.27;86.62
65291;SHT30;51893;59.754;10.110;2023-09-19T05:53:46;16.19;86.69
65291;SHT30;51893;59.754;10.110;2023-09-19T05:56:16;16.11;86.81
65291;SHT30;51893;59.754;10.110;2023-09-19T05:58:46;16.06;87.06
65291;SHT30;51893;59.754;10.110;2023-09-19T06:01:15;16.04;87.14
65291;SHT30;51893;59.754;10.110;2023-09-19T06:03:43;16.02;87.17
65291;SHT30;51893;59.754;10.110;2023-09-19T06:06:12;16.04;87.22
65291;SHT30;51893;59.754;10.110;2023-09-19T06:08:40;16.04;87.21
65291;SHT30;51893;59.754;10.110;2023-09-19T06:11:14;16.01;87.34
65291;SHT30;51893;59.754;10.110;2023-09-19T06:13:42;15.96;87.46
65291;SHT30;51893;59.754;10.110;2023-09-19T06:16:10;15.90;87.55
65291;SHT30;51893;59.754;10.110;2023-09-19T06:18:38;15.86;87.69
65291;SHT30;51893;59.754;10.110;2023-09-19T06:21:09;15.82;87.77
65291;SHT30;51893;59.754;10.110;2023-09-19T06:23:39;15.79;87.88
65291;SHT30;51893;59.754;10.110;2023-09-19T06:26:09;15.73;87.86
65291;SHT30;51893;59.754;10.110;2023-09-19T06:28:37;15.67;87.99
65291;SHT30;51893;59.754;10.110;2023-09-19T06:31:05;15.65;87.40
65291;SHT30;51893;59.754;10.110;2023-09-19T06:33:38;15.66;86.08
65291;SHT30;51893;59.754;10.110;2023-09-19T06:36:08;15.70;84.68
65291;SHT30;51893;59.754;10.110;2023-09-19T06:38:36;15.71;84.06
65291;SHT30;51893;59.754;10.110;2023-09-19T06:41:06;15.70;83.70
65291;SHT30;51893;59.754;10.110;2023-09-19T06:43:36;15.69;83.10
65291;SHT30;51893;59.754;10.110;2023-09-19T06:46:06;15.69;83.17
65291;SHT30;51893;59.754;10.110;2023-09-19T06:48:35;15.67;83.66
65291;SHT30;51893;59.754;10.110;2023-09-19T06:51:03;15.68;83.53
65291;SHT30;51893;59.754;10.110;2023-09-19T06:53:33;15.70;83.14
65291;SHT30;51893;59.754;10.110;2023-09-19T06:56:06;15.72;83.21
65291;SHT30;51893;59.754;10.110;2023-09-19T06:58:38;15.73;83.26
65291;SHT30;51893;59.754;10.110;2023-09-19T07:01:06;15.78;83.54
65291;SHT30;51893;59.754;10.110;2023-09-19T07:03:34;15.78;83.70
65291;SHT30;51893;59.754;10.110;2023-09-19T07:06:04;15.81;83.56
65291;SHT30;51893;59.754;10.110;2023-09-19T07:08:32;15.81;83.47
65291;SHT30;51893;59.754;10.110;2023-09-19T07:11:00;15.84;83.54
65291;SHT30;51893;59.754;10.110;2023-09-19T07:13:28;15.87;83.67
65291;SHT30;51893;59.754;10.110;2023-09-19T07:15:59;15.91;83.96
65291;SHT30;51893;59.754;10.110;2023-09-19T07:18:27;15.96;83.61
65291;SHT30;51893;59.754;10.110;2023-09-19T07:20:58;16.00;83.57
65291;SHT30;51893;59.754;10.110;2023-09-19T07:23:32;16.07;83.56
65291;SHT30;51893;59.754;10.110;2023-09-19T07:26:03;16.14;83.25
65291;SHT30;51893;59.754;10.110;2023-09-19T07:28:32;16.23;83.28
65291;SHT30;51893;59.754;10.110;2023-09-19T07:31:03;16.27;82.69
65291;SHT30;51893;59.754;10.110;2023-09-19T07:33:34;16.29;82.47
65291;SHT30;51893;59.754;10.110;2023-09-19T07:36:02;16.32;82.35
65291;SHT30;51893;59.754;10.110;2023-09-19T07:38:30;16.34;82.67
65291;SHT30;51893;59.754;10.110;2023-09-19T07:41:01;16.38;82.23
65291;SHT30;51893;59.754;10.110;2023-09-19T07:43:30;16.46;82.20
65291;SHT30;51893;59.754;10.110;2023-09-19T07:46:05;16.56;82.53
65291;SHT30;51893;59.754;10.110;2023-09-19T07:48:36;16.67;82.26
65291;SHT30;51893;59.754;10.110;2023-09-19T07:51:08;16.70;82.58
65291;SHT30;51893;59.754;10.110;2023-09-19T07:53:36;16.60;82.85
65291;SHT30;51893;59.754;10.110;2023-09-19T07:56:09;16.52;83.29
65291;SHT30;51893;59.754;10.110;2023-09-19T07:58:39;16.47;83.58
65291;SHT30;51893;59.754;10.110;2023-09-19T08:01:12;16.40;83.78
65291;SHT30;51893;59.754;10.110;2023-09-19T08:03:42;16.31;84.06
65291;SHT30;51893;59.754;10.110;2023-09-19T08:06:11;16.27;84.32
65291;SHT30;51893;59.754;10.110;2023-09-19T08:08:41;16.32;84.36
65291;SHT30;51893;59.754;10.110;2023-09-19T08:11:09;16.42;83.66
65291;SHT30;51893;59.754;10.110;2023-09-19T08:13:40;16.47;82.63
65291;SHT30;51893;59.754;10.110;2023-09-19T08:16:15;16.56;82.09
65291;SHT30;51893;59.754;10.110;2023-09-19T08:18:47;16.64;81.29
65291;SHT30;51893;59.754;10.110;2023-09-19T08:21:23;16.72;81.63
65291;SHT30;51893;59.754;10.110;2023-09-19T08:23:53;16.84;81.79
65291;SHT30;51893;59.754;10.110;2023-09-19T08:26:24;16.92;80.88
65291;SHT30;51893;59.754;10.110;2023-09-19T08:28:53;16.87;78.45
65291;SHT30;51893;59.754;10.110;2023-09-19T08:31:23;16.79;78.92
65291;SHT30;51893;59.754;10.110;2023-09-19T08:33:53;16.76;79.15
65291;SHT30;51893;59.754;10.110;2023-09-19T08:36:24;16.70;77.03
65291;SHT30;51893;59.754;10.110;2023-09-19T08:38:52;16.67;77.61
65291;SHT30;51893;59.754;10.110;2023-09-19T08:41:20;16.65;77.36
65291;SHT30;51893;59.754;10.110;2023-09-19T08:43:48;16.63;74.39
65291;SHT30;51893;59.754;10.110;2023-09-19T08:46:21;16.61;75.62
65291;SHT30;51893;59.754;10.110;2023-09-19T08:48:58;16.53;73.58
65291;SHT30;51893;59.754;10.110;2023-09-19T08:54:25;16.42;70.73
65291;SHT30;51893;59.754;10.110;2023-09-19T08:57:07;16.37;70.06
65291;SHT30;51893;59.754;10.110;2023-09-19T08:59:39;16.34;71.46
65291;SHT30;51893;59.754;10.110;2023-09-19T09:02:11;16.33;73.22
65291;SHT30;51893;59.754;10.110;2023-09-19T09:04:41;16.31;73.14
65291;SHT30;51893;59.754;10.110;2023-09-19T09:07:14;16.30;71.57
65291;SHT30;51893;59.754;10.110;2023-09-19T09:09:46;16.32;73.47
65291;SHT30;51893;59.754;10.110;2023-09-19T09:12:15;16.33;73.34
65291;SHT30;51893;59.754;10.110;2023-09-19T09:14:44;16.32;73.29
65291;SHT30;51893;59.754;10.110;2023-09-19T09:17:18;16.32;73.34
65291;SHT30;51893;59.754;10.110;2023-09-19T09:19:48;16.30;72.89
65291;SHT30;51893;59.754;10.110;2023-09-19T09:22:19;16.29;73.04
65291;SHT30;51893;59.754;10.110;2023-09-19T09:24:51;16.32;72.87
65291;SHT30;51893;59.754;10.110;2023-09-19T09:27:22;16.34;72.93
65291;SHT30;51893;59.754;10.110;2023-09-19T09:29:52;16.35;73.03
65291;SHT30;51893;59.754;10.110;2023-09-19T09:32:27;16.30;71.45
65291;SHT30;51893;59.754;10.110;2023-09-19T09:34:58;16.29;71.63
65291;SHT30;51893;59.754;10.110;2023-09-19T09:37:28;16.29;72.01
65291;SHT30;51893;59.754;10.110;2023-09-19T09:39:59;16.32;72.08
65291;SHT30;51893;59.754;10.110;2023-09-19T09:42:44;16.31;70.95
65291;SHT30;51893;59.754;10.110;2023-09-19T09:45:21;16.32;70.31
65291;SHT30;51893;59.754;10.110;2023-09-19T09:48:05;16.35;70.60
65291;SHT30;51893;59.754;10.110;2023-09-19T09:50:46;16.47;70.75
65291;SHT30;51893;59.754;10.110;2023-09-19T09:53:20;16.57;69.92
65291;SHT30;51893;59.754;10.110;2023-09-19T09:56:06;16.66;69.63
65291;SHT30;51893;59.754;10.110;2023-09-19T09:58:58;16.74;67.76
65291;SHT30;51893;59.754;10.110;2023-09-19T10:01:45;16.78;67.75
65291;SHT30;51893;59.754;10.110;2023-09-19T10:04:27;16.72;67.85
65291;SHT30;51893;59.754;10.110;2023-09-19T10:07:04;16.64;66.54
65291;SHT30;51893;59.754;10.110;2023-09-19T10:09:47;16.67;66.54
65291;SHT30;51893;59.754;10.110;2023-09-19T10:12:18;16.64;66.37
65291;SHT30;51893;59.754;10.110;2023-09-19T10:14:51;16.61;65.53
65291;SHT30;51893;59.754;10.110;2023-09-19T10:17:21;16.66;65.15
65291;SHT30;51893;59.754;10.110;2023-09-19T10:19:54;16.73;66.01
65291;SHT30;51893;59.754;10.110;2023-09-19T10:22:28;16.68;65.06
65291;SHT30;51893;59.754;10.110;2023-09-19T10:25:00;16.61;65.17
65291;SHT30;51893;59.754;10.110;2023-09-19T10:27:32;16.55;65.63
65291;SHT30;51893;59.754;10.110;2023-09-19T10:30:06;16.53;66.13
65291;SHT30;51893;59.754;10.110;2023-09-19T10:32:39;16.50;64.42
65291;SHT30;51893;59.754;10.110;2023-09-19T10:35:11;16.56;64.92
65291;SHT30;51893;59.754;10.110;2023-09-19T10:37:41;16.57;64.10
65291;SHT30;51893;59.754;10.110;2023-09-19T10:40:20;16.56;63.51
65291;SHT30;51893;59.754;10.110;2023-09-19T10:42:54;16.57;63.78
65291;SHT30;51893;59.754;10.110;2023-09-19T10:45:32;16.56;63.56
65291;SHT30;51893;59.754;10.110;2023-09-19T10:48:03;16.62;64.23
65291;SHT30;51893;59.754;10.110;2023-09-19T10:51:20;16.72;63.93
65291;SHT30;51893;59.754;10.110;2023-09-19T10:53:52;16.83;62.22
65291;SHT30;51893;59.754;10.110;2023-09-19T10:56:30;16.86;62.77
65291;SHT30;51893;59.754;10.110;2023-09-19T10:59:09;16.90;63.39
65291;SHT30;51893;59.754;10.110;2023-09-19T11:09:51;16.83;62.28
65291;SHT30;51893;59.754;10.110;2023-09-19T11:15:08;16.97;61.49
65291;SHT30;51893;59.754;10.110;2023-09-19T11:17:39;16.91;61.06
65291;SHT30;51893;59.754;10.110;2023-09-19T11:30:45;16.73;60.39
65291;SHT30;51893;59.754;10.110;2023-09-19T11:36:17;16.66;59.22
65291;SHT30;51893;59.754;10.110;2023-09-19T11:46:33;16.62;57.81
65291;SHT30;51893;59.754;10.110;2023-09-19T11:49:08;16.64;59.02
65291;SHT30;51893;59.754;10.110;2023-09-19T11:51:45;16.69;59.08
65291;SHT30;51893;59.754;10.110;2023-09-19T11:54:15;16.72;58.62
65291;SHT30;51893;59.754;10.110;2023-09-19T11:56:53;16.75;58.13
65291;SHT30;51893;59.754;10.110;2023-09-19T11:59:27;16.80;58.62
65291;SHT30;51893;59.754;10.110;2023-09-19T12:01:59;16.82;59.55
65291;SHT30;51893;59.754;10.110;2023-09-19T12:07:12;16.92;58.25
65291;SHT30;51893;59.754;10.110;2023-09-19T12:10:03;17.08;56.44
65291;SHT30;51893;59.754;10.110;2023-09-19T12:12:36;17.24;56.18
65291;SHT30;51893;59.754;10.110;2023-09-19T12:15:05;17.47;55.40
65291;SHT30;51893;59.754;10.110;2023-09-19T12:17:37;17.67;55.52
65291;SHT30;51893;59.754;10.110;2023-09-19T12:20:09;17.84;55.39
65291;SHT30;51893;59.754;10.110;2023-09-19T12:22:45;17.97;54.79
65291;SHT30;51893;59.754;10.110;2023-09-19T12:25:16;18.09;54.25
65291;SHT30;51893;59.754;10.110;2023-09-19T12:27:49;18.14;53.54
65291;SHT30;51893;59.754;10.110;2023-09-19T12:30:27;18.20;53.21
65291;SHT30;51893;59.754;10.110;2023-09-19T12:32:57;18.31;54.73
65291;SHT30;51893;59.754;10.110;2023-09-19T12:35:31;18.46;53.92
65291;SHT30;51893;59.754;10.110;2023-09-19T12:38:06;18.45;51.87
65291;SHT30;51893;59.754;10.110;2023-09-19T12:40:38;18.50;53.11
65291;SHT30;51893;59.754;10.110;2023-09-19T12:43:12;18.62;54.06
65291;SHT30;51893;59.754;10.110;2023-09-19T12:45:43;18.78;53.23
65291;SHT30;51893;59.754;10.110;2023-09-19T12:48:21;18.81;51.05
65291;SHT30;51893;59.754;10.110;2023-09-19T12:51:09;18.84;50.83
65291;SHT30;51893;59.754;10.110;2023-09-19T12:56:13;18.82;49.91
65291;SHT30;51893;59.754;10.110;2023-09-19T12:58:53;18.55;49.05
65291;SHT30;51893;59.754;10.110;2023-09-19T13:01:23;18.37;51.76
65291;SHT30;51893;59.754;10.110;2023-09-19T13:04:17;18.13;50.87
65291;SHT30;51893;59.754;10.110;2023-09-19T13:06:49;17.83;50.90
65291;SHT30;51893;59.754;10.110;2023-09-19T13:09:21;17.70;53.02
65291;SHT30;51893;59.754;10.110;2023-09-19T13:12:05;17.60;53.84
65291;SHT30;51893;59.754;10.110;2023-09-19T13:15:09;17.44;53.26
65291;SHT30;51893;59.754;10.110;2023-09-19T13:17:43;17.31;53.61
65291;SHT30;51893;59.754;10.110;2023-09-19T13:20:21;17.20;53.94
65291;SHT30;51893;59.754;10.110;2023-09-19T13:22:57;17.08;53.85
65291;SHT30;51893;59.754;10.110;2023-09-19T13:25:38;17.00;54.88
65291;SHT30;51893;59.754;10.110;2023-09-19T13:28:07;16.94;54.76
65291;SHT30;51893;59.754;10.110;2023-09-19T13:30:37;16.86;55.14
65291;SHT30;51893;59.754;10.110;2023-09-19T13:33:10;16.81;55.60
65291;SHT30;51893;59.754;10.110;2023-09-19T13:35:41;16.76;55.85
65291;SHT30;51893;59.754;10.110;2023-09-19T13:38:10;16.72;56.20
65291;SHT30;51893;59.754;10.110;2023-09-19T13:40:39;16.64;55.00
65291;SHT30;51893;59.754;10.110;2023-09-19T13:43:11;16.63;56.38
65291;SHT30;51893;59.754;10.110;2023-09-19T13:45:40;16.72;57.03
65291;SHT30;51893;59.754;10.110;2023-09-19T13:48:10;16.83;55.75
65291;SHT30;51893;59.754;10.110;2023-09-19T13:50:39;16.91;56.36
65291;SHT30;51893;59.754;10.110;2023-09-19T13:53:13;16.99;57.24
65291;SHT30;51893;59.754;10.110;2023-09-19T13:55:42;17.04;57.31
65291;SHT30;51893;59.754;10.110;2023-09-19T13:58:11;17.02;57.56
65291;SHT30;51893;59.754;10.110;2023-09-19T14:00:40;16.98;58.28
65291;SHT30;51893;59.754;10.110;2023-09-19T14:03:10;17.01;56.75
65291;SHT30;51893;59.754;10.110;2023-09-19T14:05:40;17.01;54.07
65291;SHT30;51893;59.754;10.110;2023-09-19T14:08:10;17.01;55.60
65291;SHT30;51893;59.754;10.110;2023-09-19T14:10:41;17.05;55.51
65291;SHT30;51893;59.754;10.110;2023-09-19T14:13:09;17.03;54.80
65291;SHT30;51893;59.754;10.110;2023-09-19T14:15:41;17.05;55.47
65291;SHT30;51893;59.754;10.110;2023-09-19T14:18:12;17.04;54.32
65291;SHT30;51893;59.754;10.110;2023-09-19T14:20:40;17.03;54.83
65291;SHT30;51893;59.754;10.110;2023-09-19T14:23:09;17.05;55.41
65291;SHT30;51893;59.754;10.110;2023-09-19T14:25:40;17.08;55.63
65291;SHT30;51893;59.754;10.110;2023-09-19T14:28:09;17.10;55.75
65291;SHT30;51893;59.754;10.110;2023-09-19T14:30:39;17.10;55.50
65291;SHT30;51893;59.754;10.110;2023-09-19T14:33:07;17.09;54.58
65291;SHT30;51893;59.754;10.110;2023-09-19T14:35:36;17.10;55.46
65291;SHT30;51893;59.754;10.110;2023-09-19T14:38:08;17.09;55.88
65291;SHT30;51893;59.754;10.110;2023-09-19T14:40:36;17.09;56.17
65291;SHT30;51893;59.754;10.110;2023-09-19T14:43:05;17.09;56.35
65291;SHT30;51893;59.754;10.110;2023-09-19T14:45:36;17.12;56.32
65291;SHT30;51893;59.754;10.110;2023-09-19T14:48:04;17.13;55.40
65291;SHT30;51893;59.754;10.110;2023-09-19T14:50:37;17.15;54.35
65291;SHT30;51893;59.754;10.110;2023-09-19T14:53:06;17.17;55.09
65291;SHT30;51893;59.754;10.110;2023-09-19T14:55:41;17.20;53.62
65291;SHT30;51893;59.754;10.110;2023-09-19T14:58:13;17.27;54.09
65291;SHT30;51893;59.754;10.110;2023-09-19T15:00:42;17.38;54.07
65291;SHT30;51893;59.754;10.110;2023-09-19T15:03:13;17.46;54.21
65291;SHT30;51893;59.754;10.110;2023-09-19T15:05:42;17.57;54.25
65291;SHT30;51893;59.754;10.110;2023-09-19T15:08:11;17.64;54.33
65291;SHT30;51893;59.754;10.110;2023-09-19T15:10:39;17.66;54.08
65291;SHT30;51893;59.754;10.110;2023-09-19T15:13:08;17.57;52.99
65291;SHT30;51893;59.754;10.110;2023-09-19T15:15:36;17.37;51.63
65291;SHT30;51893;59.754;10.110;2023-09-19T15:18:04;17.26;52.77
65291;SHT30;51893;59.754;10.110;2023-09-19T15:20:34;17.26;51.63
65291;SHT30;51893;59.754;10.110;2023-09-19T15:23:02;17.22;51.27
65291;SHT30;51893;59.754;10.110;2023-09-19T15:25:30;17.13;52.53
65291;SHT30;51893;59.754;10.110;2023-09-19T15:27:58;17.03;51.43
65291;SHT30;51893;59.754;10.110;2023-09-19T15:30:31;16.95;52.04
65291;SHT30;51893;59.754;10.110;2023-09-19T15:33:00;16.88;52.65
65291;SHT30;51893;59.754;10.110;2023-09-19T15:35:30;16.79;52.56
65291;SHT30;51893;59.754;10.110;2023-09-19T15:37:59;16.72;52.64
65291;SHT30;51893;59.754;10.110;2023-09-19T15:40:27;16.67;52.68
65291;SHT30;51893;59.754;10.110;2023-09-19T15:42:58;16.64;52.48
65291;SHT30;51893;59.754;10.110;2023-09-19T15:45:27;16.61;52.75
65291;SHT30;51893;59.754;10.110;2023-09-19T15:47:56;16.59;53.02
65291;SHT30;51893;59.754;10.110;2023-09-19T15:50:24;16.59;53.35
65291;SHT30;51893;59.754;10.110;2023-09-19T15:52:54;16.59;53.51
65291;SHT30;51893;59.754;10.110;2023-09-19T15:55:22;16.57;53.05
65291;SHT30;51893;59.754;10.110;2023-09-19T15:57:51;16.54;53.66
65291;SHT30;51893;59.754;10.110;2023-09-19T16:00:20;16.54;53.67
65291;SHT30;51893;59.754;10.110;2023-09-19T16:02:50;16.54;53.85
65291;SHT30;51893;59.754;10.110;2023-09-19T16:05:18;16.52;53.18
65291;SHT30;51893;59.754;10.110;2023-09-19T16:07:47;16.50;53.18
65291;SHT30;51893;59.754;10.110;2023-09-19T16:10:15;16.49;53.67
65291;SHT30;51893;59.754;10.110;2023-09-19T16:12:43;16.47;54.03
65291;SHT30;51893;59.754;10.110;2023-09-19T16:15:12;16.45;54.48
65291;SHT30;51893;59.754;10.110;2023-09-19T16:17:43;16.41;54.52
65291;SHT30;51893;59.754;10.110;2023-09-19T16:20:12;16.35;55.94
65291;SHT30;51893;59.754;10.110;2023-09-19T16:22:40;16.32;56.42
65291;SHT30;51893;59.754;10.110;2023-09-19T16:25:09;16.28;57.14
65291;SHT30;51893;59.754;10.110;2023-09-19T16:27:39;16.21;57.60
65291;SHT30;51893;59.754;10.110;2023-09-19T16:30:09;16.16;58.92
65291;SHT30;51893;59.754;10.110;2023-09-19T16:32:38;16.10;60.14
65291;SHT30;51893;59.754;10.110;2023-09-19T16:35:07;16.03;61.00
65291;SHT30;51893;59.754;10.110;2023-09-19T16:37:37;15.96;62.07
65291;SHT30;51893;59.754;10.110;2023-09-19T16:40:06;15.91;63.05